sensor_id;sensor_type;location;lat;lon;timestamp;P1;P4;P2;P0;N10;N4;N25;N1;N05;TS
72225;SPS30;60130;52.250;5.048;2023-05-16T00:00:00;3.78;;2.64;;;;;;;
72225;SPS30;60130;52.250;5.048;2023-05-16T00:05:00;3.27;;2.35;;;;;;;
72225;SPS30;60130;52.250;5.048;2023-05-16T00:10:00;2.82;;2.08;;;;;;;
72225;SPS30;60130;52.250;5.048;2023-05-16T00:15:00;3.82;;2.78;;;;;;;
72225;SPS30;60130;52.250;5.048;2023-05-16T00:20:00;3.14;;2.25;;;;;;;
72225;SPS30;60130;52.250;5.048;2023-05-16T00:25:00;3.41;;2.47;;;;;;;
72225;SPS30;60130;52.250;5.048;2023-05-16T00:30:00;3.50;;2.61;;;;;;;
72225;SPS30;60130;52.250;5.048;2023-05-16T00:35:00;3.35;;2.50;;;;;;;
72225;SPS30;60130;52.250;5.048;2023-05-16T00:40:00;3.18;;2.36;;;;;;;
72225;SPS30;60130;52.250;5.048;2023-05-16T00:45:00;3.11;;2.34;;;;;;;
72225;SPS30;60130;52.250;5.048;2023-05-16T00:50:00;4.46;;3.27;;;;;;;
72225;SPS30;60130;52.250;5.048;2023-05-16T00:55:00;3.21;;2.43;;;;;;;
72225;SPS30;60130;52.250;5.048;2023-05-16T01:00:00;3.38;;2.58;;;;;;;
72225;SPS30;60130;52.250;5.048;2023-05-16T01:05:00;3.98;;2.93;;;;;;;
72225;SPS30;60130;52.250;5.048;2023-05-16T01:10:00;4.22;;3.12;;;;;;;
72225;SPS30;60130;52.250;5.048;2023-05-16T01:15:01;4.14;;3.07;;;;;;;
72225;SPS30;60130;52.250;5.048;2023-05-16T01:20:02;3.76;;2.86;;;;;;;
72225;SPS30;60130;52.250;5.048;2023-05-16T01:25:03;3.19;;2.39;;;;;;;
72225;SPS30;60130;52.250;5.048;2023-05-16T01:30:00;3.69;;2.72;;;;;;;
72225;SPS30;60130;52.250;5.048;2023-05-16T01:35:00;3.37;;2.53;;;;;;;
72225;SPS30;60130;52.250;5.048;2023-05-16T01:40:02;2.73;;2.14;;;;;;;
72225;SPS30;60130;52.250;5.048;2023-05-16T01:45:01;4.02;;3.04;;;;;;;
72225;SPS30;60130;52.250;5.048;2023-05-16T01:50:01;3.84;;3.01;;;;;;;
72225;SPS30;60130;52.250;5.048;2023-05-16T01:55:00;4.15;;3.33;;;;;;;
72225;SPS30;60130;52.250;5.048;2023-05-16T02:00:00;2.79;;2.22;;;;;;;
72225;SPS30;60130;52.250;5.048;2023-05-16T02:05:00;2.62;;2.17;;;;;;;
72225;SPS30;60130;52.250;5.048;2023-05-16T02:10:00;2.74;;2.21;;;;;;;
72225;SPS30;60130;52.250;5.048;2023-05-16T02:15:00;3.40;;2.76;;;;;;;
72225;SPS30;60130;52.250;5.048;2023-05-16T02:20:00;2.37;;1.99;;;;;;;
72225;SPS30;60130;52.250;5.048;2023-05-16T02:25:00;3.53;;2.84;;;;;;;
72225;SPS30;60130;52.250;5.048;2023-05-16T02:30:00;3.26;;2.64;;;;;;;
72225;SPS30;60130;52.250;5.048;2023-05-16T02:35:00;2.86;;2.42;;;;;;;
72225;SPS30;60130;52.250;5.048;2023-05-16T02:40:00;2.87;;2.38;;;;;;;
72225;SPS30;60130;52.250;5.048;2023-05-16T02:45:00;2.99;;2.43;;;;;;;
72225;SPS30;60130;52.250;5.048;2023-05-16T02:50:00;2.76;;2.27;;;;;;;
72225;SPS30;60130;52.250;5.048;2023-05-16T02:55:00;2.80;;2.28;;;;;;;
72225;SPS30;60130;52.250;5.048;2023-05-16T03:00:00;2.53;;2.23;;;;;;;
72225;SPS30;60130;52.250;5.048;2023-05-16T03:05:00;2.01;;1.78;;;;;;;
72225;SPS30;60130;52.250;5.048;2023-05-16T03:10:00;2.89;;2.44;;;;;;;
72225;SPS30;60130;52.250;5.048;2023-05-16T03:15:00;2.65;;2.22;;;;;;;
72225;SPS30;60130;52.250;5.048;2023-05-16T03:20:00;2.87;;2.37;;;;;;;
72225;SPS30;60130;52.250;5.048;2023-05-16T03:25:00;3.39;;2.74;;;;;;;
72225;SPS30;60130;52.250;5.048;2023-05-16T03:30:00;3.19;;2.67;;;;;;;
72225;SPS30;60130;52.250;5.048;2023-05-16T03:35:00;2.98;;2.43;;;;;;;
72225;SPS30;60130;52.250;5.048;2023-05-16T03:40:00;2.03;;1.75;;;;;;;
72225;SPS30;60130;52.250;5.048;2023-05-16T03:45:00;2.12;;1.81;;;;;;;
72225;SPS30;60130;52.250;5.048;2023-05-16T03:50:00;3.08;;2.58;;;;;;;
72225;SPS30;60130;52.250;5.048;2023-05-16T03:55:00;2.69;;2.30;;;;;;;
72225;SPS30;60130;52.250;5.048;2023-05-16T04:00:00;2.00;;1.79;;;;;;;
72225;SPS30;60130;52.250;5.048;2023-05-16T04:05:00;2.46;;2.18;;;;;;;
72225;SPS30;60130;52.250;5.048;2023-05-16T04:10:00;2.58;;2.33;;;;;;;
72225;SPS30;60130;52.250;5.048;2023-05-16T04:15:00;2.39;;2.17;;;;;;;
72225;SPS30;60130;52.250;5.048;2023-05-16T04:20:00;2.76;;2.49;;;;;;;
72225;SPS30;60130;52.250;5.048;2023-05-16T04:25:00;3.57;;3.20;;;;;;;
72225;SPS30;60130;52.250;5.048;2023-05-16T04:30:00;3.01;;2.59;;;;;;;
72225;SPS30;60130;52.250;5.048;2023-05-16T04:35:00;3.23;;2.92;;;;;;;
72225;SPS30;60130;52.250;5.048;2023-05-16T04:40:00;3.01;;2.77;;;;;;;
72225;SPS30;60130;52.250;5.048;2023-05-16T04:45:00;2.82;;2.68;;;;;;;
72225;SPS30;60130;52.250;5.048;2023-05-16T04:50:00;3.03;;2.76;;;;;;;
72225;SPS30;60130;52.250;5.048;2023-05-16T04:55:00;3.06;;2.73;;;;;;;
72225;SPS30;60130;52.250;5.048;2023-05-16T05:00:00;2.75;;2.47;;;;;;;
72225;SPS30;60130;52.250;5.048;2023-05-16T05:05:00;2.53;;2.21;;;;;;;
72225;SPS30;60130;52.250;5.048;2023-05-16T05:10:00;2.21;;1.91;;;;;;;
72225;SPS30;60130;52.250;5.048;2023-05-16T05:15:00;2.62;;2.30;;;;;;;
72225;SPS30;60130;52.250;5.048;2023-05-16T05:20:00;2.01;;1.81;;;;;;;
72225;SPS30;60130;52.250;5.048;2023-05-16T05:25:00;2.16;;1.92;;;;;;;
72225;SPS30;60130;52.250;5.048;2023-05-16T05:30:00;2.49;;2.22;;;;;;;
72225;SPS30;60130;52.250;5.048;2023-05-16T05:35:00;1.90;;1.71;;;;;;;
72225;SPS30;60130;52.250;5.048;2023-05-16T05:40:00;2.14;;1.83;;;;;;;
72225;SPS30;60130;52.250;5.048;2023-05-16T05:45:00;2.60;;2.20;;;;;;;
72225;SPS30;60130;52.250;5.048;2023-05-16T05:50:00;2.26;;1.84;;;;;;;
72225;SPS30;60130;52.250;5.048;2023-05-16T05:55:00;1.63;;1.34;;;;;;;
72225;SPS30;60130;52.250;5.048;2023-05-16T06:00:00;2.04;;1.67;;;;;;;
72225;SPS30;60130;52.250;5.048;2023-05-16T06:05:00;1.81;;1.50;;;;;;;
72225;SPS30;60130;52.250;5.048;2023-05-16T06:10:00;1.85;;1.50;;;;;;;
72225;SPS30;60130;52.250;5.048;2023-05-16T06:15:00;1.63;;1.30;;;;;;;
72225;SPS30;60130;52.250;5.048;2023-05-16T06:20:00;1.94;;1.56;;;;;;;
72225;SPS30;60130;52.250;5.048;2023-05-16T06:25:00;1.97;;1.54;;;;;;;
72225;SPS30;60130;52.250;5.048;2023-05-16T06:30:00;1.53;;1.20;;;;;;;
72225;SPS30;60130;52.250;5.048;2023-05-16T06:35:00;1.60;;1.22;;;;;;;
72225;SPS30;60130;52.250;5.048;2023-05-16T06:40:00;2.06;;1.62;;;;;;;
72225;SPS30;60130;52.250;5.048;2023-05-16T06:45:00;1.55;;1.21;;;;;;;
72225;SPS30;60130;52.250;5.048;2023-05-16T06:50:00;1.92;;1.52;;;;;;;
72225;SPS30;60130;52.250;5.048;2023-05-16T06:55:00;1.30;;1.02;;;;;;;
72225;SPS30;60130;52.250;5.048;2023-05-16T07:00:00;2.25;;1.69;;;;;;;
72225;SPS30;60130;52.250;5.048;2023-05-16T07:05:00;1.46;;1.11;;;;;;;
72225;SPS30;60130;52.250;5.048;2023-05-16T07:10:00;1.46;;1.12;;;;;;;
72225;SPS30;60130;52.250;5.048;2023-05-16T07:15:00;1.76;;1.36;;;;;;;
72225;SPS30;60130;52.250;5.048;2023-05-16T07:20:00;2.18;;1.67;;;;;;;
72225;SPS30;60130;52.250;5.048;2023-05-16T07:25:00;1.70;;1.29;;;;;;;
72225;SPS30;60130;52.250;5.048;2023-05-16T07:30:00;1.73;;1.33;;;;;;;
72225;SPS30;60130;52.250;5.048;2023-05-16T07:35:00;1.50;;1.19;;;;;;;
72225;SPS30;60130;52.250;5.048;2023-05-16T07:40:00;1.30;;1.03;;;;;;;
72225;SPS30;60130;52.250;5.048;2023-05-16T07:45:00;1.15;;0.92;;;;;;;
72225;SPS30;60130;52.250;5.048;2023-05-16T07:50:00;1.25;;1.00;;;;;;;
72225;SPS30;60130;52.250;5.048;2023-05-16T07:55:00;1.73;;1.36;;;;;;;
72225;SPS30;60130;52.250;5.048;2023-05-16T08:00:00;1.39;;1.04;;;;;;;
72225;SPS30;60130;52.250;5.048;2023-05-16T08:05:00;1.32;;1.04;;;;;;;
72225;SPS30;60130;52.250;5.048;2023-05-16T08:10:00;1.56;;1.24;;;;;;;
72225;SPS30;60130;52.250;5.048;2023-05-16T08:15:00;1.99;;1.57;;;;;;;
72225;SPS30;60130;52.250;5.048;2023-05-16T08:20:00;1.27;;1.01;;;;;;;
72225;SPS30;60130;52.250;5.048;2023-05-16T08:25:00;1.45;;1.13;;;;;;;
72225;SPS30;60130;52.250;5.048;2023-05-16T08:30:00;1.42;;1.12;;;;;;;
72225;SPS30;60130;52.250;5.048;2023-05-16T08:35:00;2.01;;1.59;;;;;;;
72225;SPS30;60130;52.250;5.048;2023-05-16T08:40:00;1.35;;1.06;;;;;;;
72225;SPS30;60130;52.250;5.048;2023-05-16T08:45:00;2.10;;1.62;;;;;;;
72225;SPS30;60130;52.250;5.048;2023-05-16T08:50:00;1.27;;0.99;;;;;;;
72225;SPS30;60130;52.250;5.048;2023-05-16T08:55:00;1.22;;0.94;;;;;;;
72225;SPS30;60130;52.250;5.048;2023-05-16T09:00:00;2.18;;1.65;;;;;;;
72225;SPS30;60130;52.250;5.048;2023-05-16T09:05:00;1.11;;0.85;;;;;;;
72225;SPS30;60130;52.250;5.048;2023-05-16T09:10:00;1.43;;1.11;;;;;;;
72225;SPS30;60130;52.250;5.048;2023-05-16T09:15:00;1.41;;1.12;;;;;;;
72225;SPS30;60130;52.250;5.048;2023-05-16T09:20:00;1.90;;1.54;;;;;;;
72225;SPS30;60130;52.250;5.048;2023-05-16T09:25:00;1.59;;1.26;;;;;;;
72225;SPS30;60130;52.250;5.048;2023-05-16T09:30:01;2.20;;1.77;;;;;;;
72225;SPS30;60130;52.250;5.048;2023-05-16T09:35:00;1.28;;1.00;;;;;;;
72225;SPS30;60130;52.250;5.048;2023-05-16T09:40:00;1.94;;1.54;;;;;;;
72225;SPS30;60130;52.250;5.048;2023-05-16T09:45:00;1.33;;1.05;;;;;;;
72225;SPS30;60130;52.250;5.048;2023-05-16T09:50:00;2.10;;1.64;;;;;;;
72225;SPS30;60130;52.250;5.048;2023-05-16T09:55:01;2.51;;1.90;;;;;;;
72225;SPS30;60130;52.250;5.048;2023-05-16T10:00:00;2.19;;1.70;;;;;;;
72225;SPS30;60130;52.250;5.048;2023-05-16T10:05:00;1.97;;1.53;;;;;;;
72225;SPS30;60130;52.250;5.048;2023-05-16T10:10:00;1.52;;1.15;;;;;;;
72225;SPS30;60130;52.250;5.048;2023-05-16T10:15:00;1.23;;0.92;;;;;;;
72225;SPS30;60130;52.250;5.048;2023-05-16T10:20:00;2.05;;1.56;;;;;;;
72225;SPS30;60130;52.250;5.048;2023-05-16T10:25:03;1.86;;1.40;;;;;;;
72225;SPS30;60130;52.250;5.048;2023-05-16T10:30:00;1.79;;1.39;;;;;;;
72225;SPS30;60130;52.250;5.048;2023-05-16T10:35:00;1.58;;1.24;;;;;;;
72225;SPS30;60130;52.250;5.048;2023-05-16T10:40:00;1.86;;1.43;;;;;;;
72225;SPS30;60130;52.250;5.048;2023-05-16T10:45:08;1.22;;0.95;;;;;;;
72225;SPS30;60130;52.250;5.048;2023-05-16T10:50:00;1.68;;1.29;;;;;;;
72225;SPS30;60130;52.250;5.048;2023-05-16T10:55:01;1.73;;1.29;;;;;;;
72225;SPS30;60130;52.250;5.048;2023-05-16T11:00:00;1.13;;0.84;;;;;;;
72225;SPS30;60130;52.250;5.048;2023-05-16T11:05:00;1.58;;1.19;;;;;;;
72225;SPS30;60130;52.250;5.048;2023-05-16T11:10:02;2.42;;1.79;;;;;;;
72225;SPS30;60130;52.250;5.048;2023-05-16T11:15:00;1.21;;0.89;;;;;;;
72225;SPS30;60130;52.250;5.048;2023-05-16T11:20:00;1.50;;1.13;;;;;;;
72225;SPS30;60130;52.250;5.048;2023-05-16T11:25:00;1.71;;1.31;;;;;;;
72225;SPS30;60130;52.250;5.048;2023-05-16T11:30:03;1.62;;1.23;;;;;;;
72225;SPS30;60130;52.250;5.048;2023-05-16T11:35:00;2.39;;1.86;;;;;;;
72225;SPS30;60130;52.250;5.048;2023-05-16T11:40:00;0.99;;0.78;;;;;;;
72225;SPS30;60130;52.250;5.048;2023-05-16T11:45:04;2.11;;1.62;;;;;;;
72225;SPS30;60130;52.250;5.048;2023-05-16T11:50:00;2.07;;1.60;;;;;;;
72225;SPS30;60130;52.250;5.048;2023-05-16T11:55:00;1.60;;1.22;;;;;;;
72225;SPS30;60130;52.250;5.048;2023-05-16T12:00:01;1.96;;1.48;;;;;;;
72225;SPS30;60130;52.250;5.048;2023-05-16T12:05:04;1.61;;1.23;;;;;;;
72225;SPS30;60130;52.250;5.048;2023-05-16T12:10:03;1.85;;1.39;;;;;;;
72225;SPS30;60130;52.250;5.048;2023-05-16T12:15:00;1.88;;1.41;;;;;;;
72225;SPS30;60130;52.250;5.048;2023-05-16T12:20:00;1.28;;0.95;;;;;;;
72225;SPS30;60130;52.250;5.048;2023-05-16T12:30:00;1.53;;1.13;;;;;;;
72225;SPS30;60130;52.250;5.048;2023-05-16T12:35:00;1.26;;0.94;;;;;;;
72225;SPS30;60130;52.250;5.048;2023-05-16T12:40:00;1.31;;0.97;;;;;;;
72225;SPS30;60130;52.250;5.048;2023-05-16T12:45:00;1.79;;1.31;;;;;;;
72225;SPS30;60130;52.250;5.048;2023-05-16T12:50:00;2.11;;1.53;;;;;;;
72225;SPS30;60130;52.250;5.048;2023-05-16T12:55:00;1.89;;1.36;;;;;;;
72225;SPS30;60130;52.250;5.048;2023-05-16T13:00:00;1.92;;1.38;;;;;;;
72225;SPS30;60130;52.250;5.048;2023-05-16T13:05:00;2.22;;1.57;;;;;;;
72225;SPS30;60130;52.250;5.048;2023-05-16T13:10:00;2.22;;1.58;;;;;;;
72225;SPS30;60130;52.250;5.048;2023-05-16T13:15:00;2.19;;1.54;;;;;;;
72225;SPS30;60130;52.250;5.048;2023-05-16T13:20:00;2.42;;1.73;;;;;;;
72225;SPS30;60130;52.250;5.048;2023-05-16T13:25:00;1.54;;1.10;;;;;;;
72225;SPS30;60130;52.250;5.048;2023-05-16T13:30:00;1.21;;0.87;;;;;;;
72225;SPS30;60130;52.250;5.048;2023-05-16T13:35:00;1.46;;1.08;;;;;;;
72225;SPS30;60130;52.250;5.048;2023-05-16T13:40:00;1.35;;1.01;;;;;;;
72225;SPS30;60130;52.250;5.048;2023-05-16T13:45:00;1.15;;0.88;;;;;;;
72225;SPS30;60130;52.250;5.048;2023-05-16T13:50:00;1.55;;1.18;;;;;;;
72225;SPS30;60130;52.250;5.048;2023-05-16T13:55:00;1.59;;1.20;;;;;;;
72225;SPS30;60130;52.250;5.048;2023-05-16T14:00:00;2.46;;1.83;;;;;;;
72225;SPS30;60130;52.250;5.048;2023-05-16T14:05:00;1.68;;1.25;;;;;;;
72225;SPS30;60130;52.250;5.048;2023-05-16T14:10:00;1.26;;0.93;;;;;;;
72225;SPS30;60130;52.250;5.048;2023-05-16T14:15:00;1.45;;1.08;;;;;;;
72225;SPS30;60130;52.250;5.048;2023-05-16T14:20:00;1.50;;1.14;;;;;;;
72225;SPS30;60130;52.250;5.048;2023-05-16T14:25:00;1.74;;1.36;;;;;;;
72225;SPS30;60130;52.250;5.048;2023-05-16T14:30:00;1.70;;1.30;;;;;;;
72225;SPS30;60130;52.250;5.048;2023-05-16T14:35:00;0.89;;0.68;;;;;;;
72225;SPS30;60130;52.250;5.048;2023-05-16T14:40:00;1.45;;1.13;;;;;;;
72225;SPS30;60130;52.250;5.048;2023-05-16T14:45:00;1.40;;1.14;;;;;;;
72225;SPS30;60130;52.250;5.048;2023-05-16T14:50:00;1.35;;1.12;;;;;;;
72225;SPS30;60130;52.250;5.048;2023-05-16T14:55:00;1.73;;1.43;;;;;;;
72225;SPS30;60130;52.250;5.048;2023-05-16T15:00:00;1.23;;1.06;;;;;;;
72225;SPS30;60130;52.250;5.048;2023-05-16T15:05:00;1.51;;1.34;;;;;;;
72225;SPS30;60130;52.250;5.048;2023-05-16T15:10:00;1.01;;0.92;;;;;;;
72225;SPS30;60130;52.250;5.048;2023-05-16T15:15:00;1.10;;1.02;;;;;;;
72225;SPS30;60130;52.250;5.048;2023-05-16T15:20:00;1.40;;1.32;;;;;;;
72225;SPS30;60130;52.250;5.048;2023-05-16T15:25:00;1.33;;1.25;;;;;;;
72225;SPS30;60130;52.250;5.048;2023-05-16T15:30:00;1.89;;1.80;;;;;;;
72225;SPS30;60130;52.250;5.048;2023-05-16T15:35:00;2.12;;2.08;;;;;;;
72225;SPS30;60130;52.250;5.048;2023-05-16T15:40:00;1.86;;1.81;;;;;;;
72225;SPS30;60130;52.250;5.048;2023-05-16T15:45:00;2.22;;2.18;;;;;;;
72225;SPS30;60130;52.250;5.048;2023-05-16T15:50:00;1.80;;1.80;;;;;;;
72225;SPS30;60130;52.250;5.048;2023-05-16T15:55:00;2.24;;2.24;;;;;;;
72225;SPS30;60130;52.250;5.048;2023-05-16T16:00:00;3.20;;3.20;;;;;;;
72225;SPS30;60130;52.250;5.048;2023-05-16T16:05:00;2.96;;2.96;;;;;;;
72225;SPS30;60130;52.250;5.048;2023-05-16T16:10:00;3.57;;3.57;;;;;;;
72225;SPS30;60130;52.250;5.048;2023-05-16T16:15:00;4.04;;4.04;;;;;;;
72225;SPS30;60130;52.250;5.048;2023-05-16T16:20:00;4.44;;4.44;;;;;;;
72225;SPS30;60130;52.250;5.048;2023-05-16T16:25:00;3.49;;3.49;;;;;;;
72225;SPS30;60130;52.250;5.048;2023-05-16T16:30:00;3.50;;3.50;;;;;;;
72225;SPS30;60130;52.250;5.048;2023-05-16T16:35:00;2.70;;2.70;;;;;;;
72225;SPS30;60130;52.250;5.048;2023-05-16T16:40:00;2.66;;2.66;;;;;;;
72225;SPS30;60130;52.250;5.048;2023-05-16T16:45:00;2.48;;2.48;;;;;;;
72225;SPS30;60130;52.250;5.048;2023-05-16T16:50:00;2.31;;2.31;;;;;;;
72225;SPS30;60130;52.250;5.048;2023-05-16T16:55:00;1.78;;1.71;;;;;;;
72225;SPS30;60130;52.250;5.048;2023-05-16T17:00:00;1.72;;1.63;;;;;;;
72225;SPS30;60130;52.250;5.048;2023-05-16T17:05:00;2.24;;2.13;;;;;;;
72225;SPS30;60130;52.250;5.048;2023-05-16T17:10:01;1.99;;1.88;;;;;;;
72225;SPS30;60130;52.250;5.048;2023-05-16T17:15:00;1.51;;1.42;;;;;;;
72225;SPS30;60130;52.250;5.048;2023-05-16T17:20:00;1.84;;1.80;;;;;;;
72225;SPS30;60130;52.250;5.048;2023-05-16T17:25:00;1.67;;1.57;;;;;;;
72225;SPS30;60130;52.250;5.048;2023-05-16T17:30:00;1.49;;1.39;;;;;;;
72225;SPS30;60130;52.250;5.048;2023-05-16T17:35:00;1.35;;1.21;;;;;;;
72225;SPS30;60130;52.250;5.048;2023-05-16T17:40:00;2.30;;2.02;;;;;;;
72225;SPS30;60130;52.250;5.048;2023-05-16T17:45:00;2.31;;2.01;;;;;;;
72225;SPS30;60130;52.250;5.048;2023-05-16T17:50:00;3.62;;3.09;;;;;;;
72225;SPS30;60130;52.250;5.048;2023-05-16T17:55:00;2.86;;2.51;;;;;;;
72225;SPS30;60130;52.250;5.048;2023-05-16T18:00:00;2.71;;2.37;;;;;;;
72225;SPS30;60130;52.250;5.048;2023-05-16T18:05:00;2.40;;2.14;;;;;;;
72225;SPS30;60130;52.250;5.048;2023-05-16T18:10:00;1.85;;1.61;;;;;;;
72225;SPS30;60130;52.250;5.048;2023-05-16T18:15:00;1.73;;1.47;;;;;;;
72225;SPS30;60130;52.250;5.048;2023-05-16T18:20:00;2.16;;1.83;;;;;;;
72225;SPS30;60130;52.250;5.048;2023-05-16T18:25:00;2.16;;1.81;;;;;;;
72225;SPS30;60130;52.250;5.048;2023-05-16T18:30:00;2.05;;1.80;;;;;;;
72225;SPS30;60130;52.250;5.048;2023-05-16T18:35:00;2.23;;1.92;;;;;;;
72225;SPS30;60130;52.250;5.048;2023-05-16T18:40:00;2.47;;2.17;;;;;;;
72225;SPS30;60130;52.250;5.048;2023-05-16T18:45:00;2.41;;2.13;;;;;;;
72225;SPS30;60130;52.250;5.048;2023-05-16T18:50:00;2.31;;2.08;;;;;;;
72225;SPS30;60130;52.250;5.048;2023-05-16T18:55:00;2.36;;2.11;;;;;;;
72225;SPS30;60130;52.250;5.048;2023-05-16T19:00:00;2.75;;2.43;;;;;;;
72225;SPS30;60130;52.250;5.048;2023-05-16T19:05:00;3.37;;2.82;;;;;;;
72225;SPS30;60130;52.250;5.048;2023-05-16T19:10:00;2.56;;2.24;;;;;;;
72225;SPS30;60130;52.250;5.048;2023-05-16T19:15:00;3.94;;3.46;;;;;;;
72225;SPS30;60130;52.250;5.048;2023-05-16T19:20:00;4.33;;3.66;;;;;;;
72225;SPS30;60130;52.250;5.048;2023-05-16T19:25:00;3.58;;3.10;;;;;;;
72225;SPS30;60130;52.250;5.048;2023-05-16T19:30:00;3.23;;2.82;;;;;;;
72225;SPS30;60130;52.250;5.048;2023-05-16T19:35:00;3.44;;3.06;;;;;;;
72225;SPS30;60130;52.250;5.048;2023-05-16T19:40:00;3.42;;3.07;;;;;;;
72225;SPS30;60130;52.250;5.048;2023-05-16T19:45:00;3.05;;2.77;;;;;;;
72225;SPS30;60130;52.250;5.048;2023-05-16T19:50:00;3.35;;2.93;;;;;;;
72225;SPS30;60130;52.250;5.048;2023-05-16T19:55:00;4.04;;3.52;;;;;;;
72225;SPS30;60130;52.250;5.048;2023-05-16T20:00:00;3.08;;2.79;;;;;;;
72225;SPS30;60130;52.250;5.048;2023-05-16T20:05:00;4.08;;3.76;;;;;;;
72225;SPS30;60130;52.250;5.048;2023-05-16T20:10:00;4.75;;4.05;;;;;;;
72225;SPS30;60130;52.250;5.048;2023-05-16T20:15:00;4.59;;3.84;;;;;;;
72225;SPS30;60130;52.250;5.048;2023-05-16T20:20:00;4.07;;3.43;;;;;;;
72225;SPS30;60130;52.250;5.048;2023-05-16T20:25:00;3.39;;2.97;;;;;;;
72225;SPS30;60130;52.250;5.048;2023-05-16T20:30:00;4.29;;3.79;;;;;;;
72225;SPS30;60130;52.250;5.048;2023-05-16T20:35:00;4.02;;3.43;;;;;;;
72225;SPS30;60130;52.250;5.048;2023-05-16T20:40:00;3.38;;3.05;;;;;;;
72225;SPS30;60130;52.250;5.048;2023-05-16T20:45:00;3.50;;3.03;;;;;;;
72225;SPS30;60130;52.250;5.048;2023-05-16T20:50:00;3.98;;3.41;;;;;;;
72225;SPS30;60130;52.250;5.048;2023-05-16T20:55:00;3.61;;3.13;;;;;;;
72225;SPS30;60130;52.250;5.048;2023-05-16T21:00:00;3.34;;2.93;;;;;;;
72225;SPS30;60130;52.250;5.048;2023-05-16T21:05:00;4.30;;3.87;;;;;;;
72225;SPS30;60130;52.250;5.048;2023-05-16T21:10:00;4.02;;3.66;;;;;;;
72225;SPS30;60130;52.250;5.048;2023-05-16T21:15:00;2.93;;2.67;;;;;;;
72225;SPS30;60130;52.250;5.048;2023-05-16T21:20:00;3.64;;3.24;;;;;;;
72225;SPS30;60130;52.250;5.048;2023-05-16T21:25:00;4.20;;3.81;;;;;;;
72225;SPS30;60130;52.250;5.048;2023-05-16T21:30:00;4.12;;3.72;;;;;;;
72225;SPS30;60130;52.250;5.048;2023-05-16T21:35:00;3.67;;3.21;;;;;;;
72225;SPS30;60130;52.250;5.048;2023-05-16T21:40:00;4.55;;4.06;;;;;;;
72225;SPS30;60130;52.250;5.048;2023-05-16T21:45:00;3.82;;3.56;;;;;;;
72225;SPS30;60130;52.250;5.048;2023-05-16T21:50:00;3.82;;3.53;;;;;;;
72225;SPS30;60130;52.250;5.048;2023-05-16T21:55:00;3.82;;3.60;;;;;;;
72225;SPS30;60130;52.250;5.048;2023-05-16T22:00:00;4.45;;4.13;;;;;;;
72225;SPS30;60130;52.250;5.048;2023-05-16T22:05:00;3.73;;3.42;;;;;;;
72225;SPS30;60130;52.250;5.048;2023-05-16T22:10:00;4.29;;3.92;;;;;;;
72225;SPS30;60130;52.250;5.048;2023-05-16T22:15:00;4.28;;3.94;;;;;;;
72225;SPS30;60130;52.250;5.048;2023-05-16T22:20:00;4.99;;4.56;;;;;;;
72225;SPS30;60130;52.250;5.048;2023-05-16T22:25:00;5.11;;4.62;;;;;;;
72225;SPS30;60130;52.250;5.048;2023-05-16T22:30:00;4.19;;3.91;;;;;;;
72225;SPS30;60130;52.250;5.048;2023-05-16T22:35:00;4.96;;4.57;;;;;;;
72225;SPS30;60130;52.250;5.048;2023-05-16T22:40:00;4.23;;3.89;;;;;;;
72225;SPS30;60130;52.250;5.048;2023-05-16T22:45:00;4.84;;4.46;;;;;;;
72225;SPS30;60130;52.250;5.048;2023-05-16T22:50:00;4.74;;4.37;;;;;;;
72225;SPS30;60130;52.250;5.048;2023-05-16T22:55:00;5.06;;4.78;;;;;;;
72225;SPS30;60130;52.250;5.048;2023-05-16T23:00:00;4.79;;4.49;;;;;;;
72225;SPS30;60130;52.250;5.048;2023-05-16T23:05:00;4.10;;3.82;;;;;;;
72225;SPS30;60130;52.250;5.048;2023-05-16T23:10:00;5.11;;4.64;;;;;;;
72225;SPS30;60130;52.250;5.048;2023-05-16T23:15:00;4.52;;4.17;;;;;;;
72225;SPS30;60130;52.250;5.048;2023-05-16T23:20:00;4.87;;4.42;;;;;;;
72225;SPS30;60130;52.250;5.048;2023-05-16T23:25:00;4.60;;4.22;;;;;;;
72225;SPS30;60130;52.250;5.048;2023-05-16T23:30:00;5.46;;4.91;;;;;;;
72225;SPS30;60130;52.250;5.048;2023-05-16T23:35:00;4.82;;4.50;;;;;;;
72225;SPS30;60130;52.250;5.048;2023-05-16T23:40:00;4.90;;4.55;;;;;;;
72225;SPS30;60130;52.250;5.048;2023-05-16T23:45:00;4.91;;4.59;;;;;;;
72225;SPS30;60130;52.250;5.048;2023-05-16T23:50:00;5.44;;4.89;;;;;;;
72225;SPS30;60130;52.250;5.048;2023-05-16T23:55:00;4.55;;4.20;;;;;;;
